Time;durP1;ratioP1;P1;durP2;ratioP2;P2;SDS_P1;SDS_P2;PMS_P1;PMS_P2;Temp;Humidity;BMP_temperature;BMP_pressure;BME280_temperature;BME280_humidity;BME280_pressure;Samples;Min_cycle;Max_cycle;Signal;HPM_P1;HPM_P2
2021/09/10 00:02:27;;;;;;;6.15;2.60;;;13.80;99.90;;;;;;4863614;29;20431;-96
2021/09/10 00:05:04;;;;;;;4.80;2.60;;;13.80;99.90;;;;;;4893598;29;20435;-96
2021/09/10 00:07:32;;;;;;;6.68;2.95;;;13.80;99.90;;;;;;4890660;29;20451;-95
2021/09/10 00:10:03;;;;;;;6.38;2.55;;;13.90;99.90;;;;;;4893575;29;20435;-94
2021/09/10 00:12:33;;;;;;;6.60;2.58;;;13.80;99.90;;;;;;4906853;29;20441;-96
2021/09/10 00:15:13;;;;;;;4.25;2.60;;;13.70;99.90;;;;;;4882881;29;20443;-96
2021/09/10 00:17:45;;;;;;;7.57;2.50;;;13.60;99.90;;;;;;4882551;29;20439;-96
2021/09/10 00:20:36;;;;;;;4.18;2.30;;;13.70;99.90;;;;;;4895507;29;20427;-94
2021/09/10 00:23:07;;;;;;;6.20;2.28;;;13.70;99.80;;;;;;4895350;29;20434;-95
2021/09/10 00:25:36;;;;;;;4.27;2.40;;;13.70;99.90;;;;;;4893545;29;20441;-95
2021/09/10 00:28:07;;;;;;;4.07;2.35;;;13.70;99.90;;;;;;4898060;29;20475;-96
2021/09/10 00:31:00;;;;;;;5.60;2.75;;;13.70;99.90;;;;;;4897400;29;20436;-95
2021/09/10 00:33:34;;;;;;;7.53;2.80;;;13.60;99.90;;;;;;4863211;29;20430;-96
2021/09/10 00:36:13;;;;;;;4.82;2.50;;;13.60;99.90;;;;;;4879326;29;20448;-96
2021/09/10 00:39:11;;;;;;;5.07;2.70;;;13.50;99.90;;;;;;4939203;29;20895;-95
2021/09/10 00:42:13;;;;;;;8.55;2.72;;;13.50;99.90;;;;;;4953669;29;20436;-94
2021/09/10 00:44:44;;;;;;;10.47;2.70;;;13.60;99.90;;;;;;4935134;29;20442;-95
2021/09/10 00:47:31;;;;;;;6.10;2.63;;;13.50;99.90;;;;;;4923203;29;20474;-96
2021/09/10 00:49:58;;;;;;;7.05;3.17;;;13.50;99.90;;;;;;4932042;29;20431;-95
2021/09/10 00:52:26;;;;;;;6.03;2.88;;;13.50;99.90;;;;;;4907795;29;20427;-96
2021/09/10 00:54:54;;;;;;;7.70;2.90;;;13.50;99.90;;;;;;4923431;29;20432;-96
2021/09/10 00:57:25;;;;;;;7.22;2.72;;;13.50;99.90;;;;;;4923096;29;20522;-96
2021/09/10 00:59:53;;;;;;;6.78;3.03;;;13.50;99.90;;;;;;4923407;29;20441;-96
2021/09/10 01:02:20;;;;;;;5.85;2.85;;;13.50;99.90;;;;;;4923124;29;20424;-95
2021/09/10 01:04:48;;;;;;;8.38;2.70;;;13.60;99.90;;;;;;4907668;29;20434;-95
2021/09/10 01:07:19;;;;;;;6.77;2.60;;;13.60;99.90;;;;;;4923041;29;20450;-95
2021/09/10 01:09:46;;;;;;;7.35;3.00;;;13.60;99.90;;;;;;4923300;29;20428;-95
2021/09/10 01:12:14;;;;;;;6.93;2.90;;;13.60;99.90;;;;;;4923191;29;20431;-96
2021/09/10 01:14:42;;;;;;;8.88;2.70;;;13.50;99.90;;;;;;4923080;29;20510;-95
2021/09/10 01:17:10;;;;;;;11.52;3.10;;;13.40;99.90;;;;;;4941621;28;20486;-96
2021/09/10 01:19:38;;;;;;;7.07;2.97;;;13.40;99.90;;;;;;4932634;29;20455;-96
2021/09/10 01:22:06;;;;;;;5.55;2.70;;;13.40;99.90;;;;;;4923434;29;20436;-96
2021/09/10 01:25:00;;;;;;;6.22;3.05;;;13.30;99.90;;;;;;4923267;29;20963;-96
2021/09/10 01:27:27;;;;;;;7.95;2.95;;;13.20;99.90;;;;;;4921503;29;20447;-95
2021/09/10 01:29:54;;;;;;;6.40;2.65;;;13.20;99.90;;;;;;4922176;29;21006;-96
2021/09/10 01:32:21;;;;;;;7.50;2.80;;;13.20;99.90;;;;;;4922529;29;20424;-96
2021/09/10 01:34:49;;;;;;;11.73;2.90;;;13.20;99.90;;;;;;4922353;29;20476;-95
2021/09/10 01:37:17;;;;;;;7.40;2.78;;;13.10;99.90;;;;;;4923017;29;20506;-94
2021/09/10 01:39:44;;;;;;;9.15;2.88;;;13.20;99.90;;;;;;4923606;29;20779;-96
2021/09/10 01:42:11;;;;;;;9.50;2.63;;;13.30;99.90;;;;;;4922723;29;20434;-95
2021/09/10 01:44:38;;;;;;;7.72;2.80;;;13.20;99.90;;;;;;4922226;29;20764;-96
2021/09/10 01:47:05;;;;;;;6.50;2.65;;;13.20;99.90;;;;;;4923016;29;20435;-96
2021/09/10 01:49:32;;;;;;;6.78;2.65;;;13.20;99.90;;;;;;4906637;29;20965;-95
2021/09/10 01:51:59;;;;;;;5.05;2.90;;;13.20;99.90;;;;;;4922115;29;20957;-95
2021/09/10 01:54:28;;;;;;;4.47;2.70;;;13.20;99.90;;;;;;4922374;29;20432;-96
2021/09/10 01:56:55;;;;;;;11.27;3.03;;;13.10;99.90;;;;;;4922013;29;20431;-96
2021/09/10 01:59:23;;;;;;;5.03;2.83;;;13.10;99.90;;;;;;4922624;29;20434;-96
2021/09/10 02:01:50;;;;;;;7.05;2.70;;;13.10;99.90;;;;;;4922523;29;20432;-95
2021/09/10 02:04:18;;;;;;;7.32;2.50;;;13.10;99.90;;;;;;4922472;29;20939;-96
2021/09/10 02:06:46;;;;;;;6.40;2.67;;;13.10;99.90;;;;;;4921813;29;20435;-95
2021/09/10 02:09:13;;;;;;;5.82;2.75;;;13.30;99.90;;;;;;4922181;29;20799;-95
2021/09/10 02:11:40;;;;;;;6.03;2.50;;;13.50;99.90;;;;;;4923119;29;20428;-95
2021/09/10 02:14:13;;;;;;;7.45;2.67;;;13.60;99.90;;;;;;4923138;29;20435;-96
2021/09/10 02:16:40;;;;;;;4.67;2.63;;;13.70;99.90;;;;;;4922535;29;20428;-96
2021/09/10 02:19:09;;;;;;;4.63;2.78;;;13.80;99.90;;;;;;4921871;29;20440;-95
2021/09/10 02:21:37;;;;;;;8.10;3.10;;;13.80;99.90;;;;;;4922495;29;20428;-96
2021/09/10 02:24:05;;;;;;;7.38;2.65;;;13.70;99.90;;;;;;4923175;29;20466;-95
2021/09/10 02:26:33;;;;;;;5.72;2.83;;;13.60;99.90;;;;;;4911541;29;20502;-95
2021/09/10 02:29:00;;;;;;;5.28;2.72;;;13.40;99.90;;;;;;4920912;29;20436;-95
2021/09/10 02:31:28;;;;;;;7.45;2.90;;;13.30;99.90;;;;;;4921552;29;20427;-96
2021/09/10 02:33:58;;;;;;;6.00;2.95;;;13.20;99.90;;;;;;4921988;29;20745;-94
2021/09/10 02:36:28;;;;;;;13.27;2.83;;;13.10;99.90;;;;;;4920947;29;20431;-95
2021/09/10 02:38:55;;;;;;;7.00;2.75;;;13.00;99.90;;;;;;4920859;29;20432;-95
2021/09/10 02:41:22;;;;;;;6.20;3.00;;;12.90;99.90;;;;;;4921436;29;20431;-94
2021/09/10 02:43:49;;;;;;;6.17;2.73;;;12.90;99.90;;;;;;4920694;29;20427;-95
2021/09/10 02:46:16;;;;;;;6.75;2.95;;;12.90;99.90;;;;;;4921189;29;20454;-95
2021/09/10 02:48:43;;;;;;;7.78;2.97;;;12.90;99.90;;;;;;4921455;29;20856;-94
2021/09/10 02:51:10;;;;;;;7.28;3.00;;;13.00;99.90;;;;;;4920934;29;21018;-94
2021/09/10 02:53:38;;;;;;;6.40;2.70;;;12.90;99.90;;;;;;4921158;29;20424;-95
2021/09/10 02:56:05;;;;;;;6.70;2.60;;;12.90;99.90;;;;;;4921472;29;20442;-94
2021/09/10 02:58:32;;;;;;;5.88;2.85;;;12.90;99.90;;;;;;4928556;29;20424;-96
2021/09/10 03:00:59;;;;;;;6.35;2.92;;;12.90;99.90;;;;;;4938740;29;20423;-95
2021/09/10 03:03:28;;;;;;;5.75;2.70;;;13.00;99.90;;;;;;4923444;29;20841;-95
2021/09/10 03:05:56;;;;;;;6.00;2.88;;;12.90;99.90;;;;;;4921050;29;20423;-96
2021/09/10 03:08:24;;;;;;;8.50;3.10;;;12.90;99.90;;;;;;4920466;29;20474;-95
2021/09/10 03:10:51;;;;;;;7.80;3.30;;;12.90;99.90;;;;;;4920455;29;20427;-95
2021/09/10 03:13:18;;;;;;;7.60;2.78;;;12.90;99.90;;;;;;4920654;29;20948;-95
2021/09/10 03:15:46;;;;;;;6.70;3.00;;;12.90;99.90;;;;;;4920619;29;20430;-95
2021/09/10 03:18:13;;;;;;;8.88;3.00;;;12.90;99.90;;;;;;4920281;29;20440;-96
2021/09/10 03:20:40;;;;;;;6.32;2.92;;;12.90;99.90;;;;;;4920932;29;20434;-96
2021/09/10 03:23:08;;;;;;;7.75;3.00;;;12.90;99.90;;;;;;4920177;29;20483;-95
2021/09/10 03:25:35;;;;;;;6.53;2.80;;;12.90;99.90;;;;;;4920779;29;20431;-96
2021/09/10 03:28:03;;;;;;;7.47;2.83;;;12.90;99.90;;;;;;4920180;29;20927;-95
2021/09/10 03:30:30;;;;;;;7.40;2.80;;;12.90;99.90;;;;;;4920091;29;20428;-96
2021/09/10 03:32:57;;;;;;;5.75;2.95;;;12.90;99.90;;;;;;4920341;29;20431;-95
2021/09/10 03:35:24;;;;;;;8.65;3.45;;;12.90;99.90;;;;;;4920252;29;20472;-96
2021/09/10 03:37:51;;;;;;;9.40;3.13;;;13.00;99.90;;;;;;4920687;29;20431;-95
2021/09/10 03:40:18;;;;;;;6.80;3.70;;;13.00;99.90;;;;;;4919982;29;20428;-95
2021/09/10 03:42:45;;;;;;;8.10;3.90;;;13.00;99.90;;;;;;4920282;29;20437;-96
2021/09/10 03:45:13;;;;;;;9.95;3.90;;;13.00;99.90;;;;;;4919880;29;20442;-95
2021/09/10 03:47:40;;;;;;;11.38;4.35;;;13.00;99.90;;;;;;4920710;29;20511;-94
2021/09/10 03:50:08;;;;;;;9.18;3.88;;;13.00;99.90;;;;;;4921146;29;21001;-96
2021/09/10 03:52:35;;;;;;;11.95;4.57;;;13.00;99.90;;;;;;4924257;29;20437;-95
2021/09/10 03:55:02;;;;;;;10.30;4.55;;;13.00;99.90;;;;;;4923867;29;20434;-95
2021/09/10 03:57:29;;;;;;;8.52;4.45;;;13.00;99.90;;;;;;4923766;29;20436;-96
2021/09/10 03:59:56;;;;;;;9.23;4.00;;;13.10;99.90;;;;;;4926944;29;20437;-96
2021/09/10 04:02:23;;;;;;;9.15;4.40;;;13.00;99.90;;;;;;4924576;29;20791;-95
2021/09/10 04:04:51;;;;;;;10.50;4.28;;;13.00;99.90;;;;;;4908173;29;20487;-95
2021/09/10 04:07:18;;;;;;;10.48;4.90;;;13.00;99.90;;;;;;4925641;29;20510;-96
2021/09/10 04:09:45;;;;;;;11.10;4.45;;;12.90;99.90;;;;;;4926225;29;20469;-94
2021/09/10 04:12:15;;;;;;;9.40;4.13;;;12.80;99.90;;;;;;4926376;29;20431;-95
2021/09/10 04:14:42;;;;;;;7.28;3.70;;;12.70;99.90;;;;;;4923770;29;20440;-94
2021/09/10 04:17:09;;;;;;;5.18;3.30;;;12.60;99.90;;;;;;4925183;29;20482;-94
2021/09/10 04:19:36;;;;;;;7.90;4.03;;;12.60;99.90;;;;;;4923989;29;20431;-95
2021/09/10 04:22:03;;;;;;;7.03;3.60;;;12.60;99.90;;;;;;4923799;29;20437;-96
2021/09/10 04:24:30;;;;;;;5.93;3.60;;;12.50;99.90;;;;;;4923735;29;20773;-95
2021/09/10 04:27:06;;;;;;;7.35;3.67;;;12.50;99.90;;;;;;4923773;29;20422;-96
2021/09/10 04:29:33;;;;;;;7.77;4.23;;;12.40;99.90;;;;;;4923761;29;20930;-94
2021/09/10 04:32:00;;;;;;;9.15;4.05;;;12.40;99.90;;;;;;4923487;29;20431;-94
2021/09/10 04:34:27;;;;;;;6.53;3.53;;;12.20;99.90;;;;;;4923485;29;20502;-94
2021/09/10 04:36:54;;;;;;;11.02;4.20;;;12.30;99.90;;;;;;4923411;29;20435;-94
2021/09/10 04:39:21;;;;;;;9.93;4.07;;;12.30;99.90;;;;;;4923613;29;20435;-95
2021/09/10 04:41:48;;;;;;;16.83;4.82;;;12.30;99.90;;;;;;4937399;29;20422;-94
2021/09/10 04:44:15;;;;;;;12.60;4.85;;;12.30;99.90;;;;;;4935703;29;20506;-95
2021/09/10 04:46:42;;;;;;;12.63;5.40;;;12.20;99.90;;;;;;4906807;29;20443;-95
2021/09/10 04:49:10;;;;;;;12.35;5.43;;;12.00;99.90;;;;;;4904372;29;20475;-96
2021/09/10 04:51:37;;;;;;;12.98;5.10;;;11.90;99.90;;;;;;4904254;29;20521;-94
2021/09/10 04:54:04;;;;;;;13.68;4.88;;;11.90;99.90;;;;;;4903427;29;20512;-96
2021/09/10 04:56:31;;;;;;;13.90;5.53;;;12.10;99.90;;;;;;4904193;29;20453;-95
2021/09/10 04:59:02;;;;;;;12.30;5.22;;;12.40;99.90;;;;;;4904723;29;20460;-94
2021/09/10 05:01:30;;;;;;;11.05;4.63;;;12.40;99.90;;;;;;4903430;29;20501;-94
2021/09/10 05:03:57;;;;;;;15.18;4.78;;;12.30;99.90;;;;;;4903685;29;20436;-96
2021/09/10 05:06:25;;;;;;;17.10;5.40;;;12.20;99.90;;;;;;4904876;29;20445;-95
2021/09/10 05:08:52;;;;;;;11.70;5.13;;;12.10;99.90;;;;;;4904425;29;20452;-95
2021/09/10 05:11:20;;;;;;;11.55;5.40;;;12.30;99.90;;;;;;4903851;29;20436;-95
2021/09/10 05:14:18;;;;;;;13.17;5.73;;;12.40;99.90;;;;;;4909451;29;20433;-95
2021/09/10 05:16:45;;;;;;;17.75;5.32;;;12.40;99.90;;;;;;4904297;29;20521;-93
2021/09/10 05:19:12;;;;;;;10.88;5.22;;;12.50;99.90;;;;;;4903945;29;20436;-94
2021/09/10 05:21:40;;;;;;;14.05;5.30;;;12.60;99.90;;;;;;4903968;29;20450;-94
2021/09/10 05:24:08;;;;;;;16.55;5.82;;;12.50;99.90;;;;;;4904206;29;20453;-94
2021/09/10 05:26:35;;;;;;;18.60;5.97;;;12.40;99.90;;;;;;4904053;29;20444;-93
2021/09/10 05:29:02;;;;;;;14.93;6.13;;;12.20;99.90;;;;;;4903200;29;20797;-96
2021/09/10 05:31:29;;;;;;;15.40;6.47;;;12.30;99.90;;;;;;4903696;29;20437;-96
2021/09/10 05:33:56;;;;;;;14.40;5.70;;;12.20;99.90;;;;;;4903687;29;20444;-96
2021/09/10 05:36:23;;;;;;;15.85;6.00;;;12.30;99.90;;;;;;4904198;29;20772;-94
2021/09/10 05:38:50;;;;;;;15.18;5.93;;;12.40;99.90;;;;;;4903569;29;20433;-96
2021/09/10 05:41:18;;;;;;;16.65;5.70;;;12.60;99.90;;;;;;5465225;23;21493;-93
2021/09/10 05:43:45;;;;;;;14.25;5.68;;;12.80;99.90;;;;;;4940160;29;20437;-94
2021/09/10 05:46:12;;;;;;;15.30;5.47;;;13.00;99.90;;;;;;4942431;28;20441;-93
2021/09/10 05:48:39;;;;;;;17.08;4.72;;;13.20;99.90;;;;;;4941703;29;20446;-94
2021/09/10 05:51:08;;;;;;;13.65;4.93;;;13.40;99.90;;;;;;4941271;29;20430;-93
2021/09/10 05:53:35;;;;;;;16.00;4.30;;;13.50;99.90;;;;;;4941712;29;20924;-93
2021/09/10 05:56:02;;;;;;;9.05;3.95;;;13.60;99.90;;;;;;4941162;29;20434;-94
2021/09/10 05:58:29;;;;;;;11.10;4.10;;;13.80;99.90;;;;;;4941219;29;20777;-94
2021/09/10 06:00:56;;;;;;;12.82;4.63;;;13.90;99.90;;;;;;4940930;29;20769;-94
2021/09/10 06:03:24;;;;;;;10.45;4.43;;;14.10;99.90;;;;;;4940561;29;20509;-96
2021/09/10 06:05:51;;;;;;;8.48;4.00;;;14.10;99.90;;;;;;4940651;29;20777;-94
2021/09/10 06:08:18;;;;;;;8.93;4.10;;;14.10;99.90;;;;;;4940434;29;20452;-95
2021/09/10 06:10:46;;;;;;;9.15;3.95;;;14.30;99.90;;;;;;4940404;29;20508;-96
2021/09/10 06:13:18;;;;;;;15.60;4.00;;;14.50;99.90;;;;;;4940584;29;20921;-95
2021/09/10 06:15:45;;;;;;;9.15;3.78;;;14.60;99.90;;;;;;4940035;29;20787;-95
2021/09/10 06:18:13;;;;;;;10.60;4.05;;;14.60;99.90;;;;;;4940557;29;20433;-95
2021/09/10 06:20:40;;;;;;;11.57;3.75;;;14.60;99.90;;;;;;4940233;29;20484;-94
2021/09/10 06:23:07;;;;;;;9.68;4.32;;;14.80;99.90;;;;;;4939948;29;20438;-94
2021/09/10 06:25:34;;;;;;;10.48;4.32;;;14.80;99.90;;;;;;4956507;28;20405;-94
2021/09/10 06:28:02;;;;;;;10.38;4.45;;;15.00;99.90;;;;;;4949140;29;20426;-96
2021/09/10 06:30:30;;;;;;;7.43;4.00;;;15.10;99.90;;;;;;4933734;29;20445;-95
2021/09/10 06:33:00;;;;;;;8.63;3.95;;;15.40;99.90;;;;;;4921999;29;20434;-96
2021/09/10 06:35:30;;;;;;;8.18;3.70;;;15.70;99.90;;;;;;4922305;29;20954;-96
2021/09/10 06:37:57;;;;;;;7.95;3.33;;;16.00;99.90;;;;;;4922114;29;20478;-94
2021/09/10 06:40:24;;;;;;;10.32;3.00;;;16.40;99.90;;;;;;4921191;29;20501;-93
2021/09/10 06:42:53;;;;;;;5.95;2.90;;;16.90;99.90;;;;;;4920888;29;20431;-95
2021/09/10 06:45:22;;;;;;;6.88;3.17;;;17.20;99.90;;;;;;4921730;29;20427;-94
2021/09/10 06:47:49;;;;;;;8.95;3.50;;;17.50;99.90;;;;;;4920843;29;20923;-94
2021/09/10 06:50:17;;;;;;;14.13;3.83;;;17.70;99.90;;;;;;4920425;29;20431;-93
2021/09/10 06:52:44;;;;;;;8.33;3.90;;;18.00;99.90;;;;;;4921099;29;20438;-93
2021/09/10 06:55:11;;;;;;;8.05;3.30;;;18.10;99.90;;;;;;4920653;29;20438;-93
2021/09/10 06:57:38;;;;;;;8.83;3.30;;;18.50;99.90;;;;;;4922078;29;20428;-94
2021/09/10 07:00:06;;;;;;;8.80;3.83;;;19.00;99.80;;;;;;4920352;29;21037;-94
2021/09/10 07:02:33;;;;;;;9.45;4.05;;;19.30;99.00;;;;;;4920574;29;20431;-94
2021/09/10 07:05:01;;;;;;;8.32;4.00;;;19.30;99.20;;;;;;4920526;29;20473;-95
2021/09/10 07:07:56;;;;;;;8.88;3.83;;;19.30;99.00;;;;;;4925552;29;20450;-96
2021/09/10 07:10:29;;;;;;;9.50;3.80;;;19.50;99.20;;;;;;4923324;29;21002;-93
2021/09/10 07:12:56;;;;;;;6.72;3.35;;;19.70;96.10;;;;;;4909567;29;20429;-94
2021/09/10 07:15:24;;;;;;;13.35;4.03;;;20.00;96.30;;;;;;4901214;29;20441;-94
2021/09/10 07:17:51;;;;;;;11.83;3.90;;;20.30;96.10;;;;;;4901748;29;20440;-95
2021/09/10 07:20:18;;;;;;;6.43;3.70;;;20.60;95.30;;;;;;4901387;29;20437;-94
2021/09/10 07:22:45;;;;;;;5.72;3.30;;;20.60;94.40;;;;;;4901592;29;20425;-94
2021/09/10 07:25:12;;;;;;;7.43;3.70;;;20.50;93.50;;;;;;4900914;29;20437;-95
2021/09/10 07:27:39;;;;;;;9.15;3.60;;;20.20;95.60;;;;;;4901694;29;20482;-95
2021/09/10 07:30:07;;;;;;;13.15;3.67;;;20.30;95.90;;;;;;4901034;29;20444;-96
2021/09/10 07:32:34;;;;;;;7.10;3.50;;;20.20;94.70;;;;;;4902140;29;20429;-94
2021/09/10 07:35:01;;;;;;;7.43;3.63;;;20.00;94.90;;;;;;4901803;29;20429;-95
2021/09/10 07:37:30;;;;;;;10.95;3.97;;;20.20;94.90;;;;;;4901583;29;20508;-95
2021/09/10 07:39:57;;;;;;;8.85;3.75;;;20.20;96.10;;;;;;4901734;29;20509;-96
2021/09/10 07:42:24;;;;;;;8.02;3.75;;;20.00;94.30;;;;;;4901501;29;20441;-96
2021/09/10 07:44:51;;;;;;;10.40;3.70;;;19.80;95.40;;;;;;4902052;29;20425;-95
2021/09/10 07:47:18;;;;;;;10.70;3.67;;;19.90;95.50;;;;;;4901397;29;20770;-95
2021/09/10 07:49:46;;;;;;;7.10;4.00;;;19.90;95.50;;;;;;4900972;29;20452;-95
2021/09/10 07:52:13;;;;;;;9.02;4.95;;;19.70;97.00;;;;;;4901710;29;20473;-96
2021/09/10 07:54:40;;;;;;;8.63;4.80;;;19.50;97.20;;;;;;4905301;29;20433;-96
2021/09/10 07:57:21;;;;;;;9.88;5.30;;;19.50;98.90;;;;;;4906177;29;20433;-95
2021/09/10 07:59:49;;;;;;;11.60;5.30;;;19.40;98.30;;;;;;4901583;29;20436;-94
2021/09/10 08:02:16;;;;;;;11.00;4.22;;;19.40;99.50;;;;;;4901083;29;20928;-94
2021/09/10 08:04:43;;;;;;;5.97;3.92;;;19.40;98.10;;;;;;4900956;29;20437;-95
2021/09/10 08:07:12;;;;;;;9.68;4.07;;;19.40;98.60;;;;;;4901462;29;20432;-95
2021/09/10 08:09:57;;;;;;;7.50;3.83;;;19.30;98.10;;;;;;4925437;29;20431;-94
2021/09/10 08:12:24;;;;;;;10.27;3.72;;;19.30;97.60;;;;;;4902882;29;20429;-94
2021/09/10 08:14:51;;;;;;;8.68;3.83;;;19.30;98.00;;;;;;4900804;29;20936;-95
2021/09/10 08:17:18;;;;;;;11.70;4.13;;;19.20;95.80;;;;;;4900987;29;20444;-96
2021/09/10 08:20:02;;;;;;;12.90;5.07;;;19.20;96.20;;;;;;4912269;29;20457;-95
2021/09/10 08:22:36;;;;;;;9.38;4.50;;;19.20;96.80;;;;;;4924719;29;20457;-95
2021/09/10 08:25:07;;;;;;;8.95;4.00;;;19.10;96.80;;;;;;4902797;29;20849;-93
2021/09/10 08:27:36;;;;;;;13.23;5.25;;;19.10;96.70;;;;;;4902576;29;20421;-95
2021/09/10 08:30:06;;;;;;;8.50;5.03;;;19.10;96.70;;;;;;4901574;29;20812;-95
2021/09/10 08:32:33;;;;;;;9.80;4.80;;;19.20;96.90;;;;;;4901327;29;20515;-94
2021/09/10 08:35:01;;;;;;;10.55;4.45;;;19.20;96.70;;;;;;4900996;29;20429;-96
2021/09/10 08:37:29;;;;;;;12.00;5.10;;;19.10;97.80;;;;;;4904211;29;20489;-96
2021/09/10 08:39:56;;;;;;;10.05;4.88;;;19.20;96.50;;;;;;4904903;29;20492;-96
2021/09/10 08:42:24;;;;;;;13.32;4.75;;;19.20;97.20;;;;;;4905063;29;20433;-95
2021/09/10 08:44:52;;;;;;;10.48;5.15;;;19.20;98.00;;;;;;4904417;29;20491;-96
2021/09/10 08:47:19;;;;;;;11.90;4.40;;;19.30;97.50;;;;;;4905453;29;20433;-95
2021/09/10 08:49:46;;;;;;;8.38;4.57;;;19.40;98.90;;;;;;4904955;29;20441;-96
2021/09/10 08:52:15;;;;;;;8.75;4.95;;;19.50;97.30;;;;;;4904183;29;20457;-95
2021/09/10 08:54:43;;;;;;;10.73;5.20;;;19.40;97.80;;;;;;4904118;29;20429;-96
2021/09/10 08:57:10;;;;;;;9.50;4.82;;;19.50;97.80;;;;;;4904777;29;20512;-96
2021/09/10 08:59:37;;;;;;;9.57;5.05;;;19.50;98.40;;;;;;4904969;29;20429;-94
2021/09/10 09:02:04;;;;;;;8.55;4.63;;;19.60;99.70;;;;;;4904175;29;20429;-94
2021/09/10 09:04:35;;;;;;;9.60;4.80;;;19.70;99.90;;;;;;4904540;29;20437;-95
2021/09/10 09:07:08;;;;;;;10.17;4.90;;;19.80;99.90;;;;;;4904471;29;20421;-94
2021/09/10 09:09:46;;;;;;;7.72;4.53;;;19.90;99.90;;;;;;4904514;29;20441;-95
2021/09/10 09:12:13;;;;;;;10.10;4.50;;;20.00;99.10;;;;;;4904309;29;20437;-95
2021/09/10 09:14:52;;;;;;;9.35;5.13;;;20.00;99.90;;;;;;4903616;29;20789;-96
2021/09/10 09:17:40;;;;;;;10.35;5.00;;;20.10;99.90;;;;;;4904196;29;20769;-95
2021/09/10 09:20:17;;;;;;;21.52;5.20;;;20.30;99.90;;;;;;4903243;29;20439;-96
2021/09/10 09:22:53;;;;;;;8.60;4.97;;;20.30;99.90;;;;;;4904025;29;20435;-96
2021/09/10 09:25:26;;;;;;;12.70;5.57;;;20.30;99.90;;;;;;4903389;29;21034;-94
2021/09/10 09:27:54;;;;;;;8.75;5.07;;;20.30;99.90;;;;;;4904192;29;20500;-94
2021/09/10 09:30:35;;;;;;;17.45;5.45;;;20.70;99.90;;;;;;4903481;29;20532;-96
2021/09/10 09:33:03;;;;;;;11.07;5.60;;;21.10;99.90;;;;;;4903503;29;20429;-96
2021/09/10 09:35:31;;;;;;;11.93;5.30;;;21.00;99.90;;;;;;4903421;29;20433;-95
2021/09/10 09:38:00;;;;;;;12.37;5.80;;;20.80;99.50;;;;;;4903609;29;20782;-96
2021/09/10 09:40:33;;;;;;;12.48;6.30;;;20.60;99.90;;;;;;4903245;29;20958;-96
2021/09/10 09:43:15;;;;;;;10.52;5.63;;;20.50;99.90;;;;;;4903068;29;20445;-95
2021/09/10 09:45:45;;;;;;;12.27;5.60;;;20.60;99.90;;;;;;4904054;29;20430;-96
2021/09/10 09:48:13;;;;;;;10.98;5.43;;;20.90;99.90;;;;;;4905601;29;20440;-96
2021/09/10 09:50:42;;;;;;;9.43;6.03;;;21.10;99.90;;;;;;4903832;29;20508;-95
2021/09/10 09:53:14;;;;;;;11.30;5.90;;;21.10;99.90;;;;;;4924513;29;20429;-96
2021/09/10 09:58:17;;;;;;;11.18;6.25;;;21.00;99.90;;;;;;5210922;23;20451;-96
2021/09/10 10:00:47;;;;;;;13.63;6.28;;;21.30;99.70;;;;;;4956219;29;20485;-96
2021/09/10 10:09:22;;;;;;;13.10;6.10;;;21.30;99.70;;;;;;4909216;29;20464;-96
2021/09/10 10:12:00;;;;;;;13.60;6.13;;;21.30;99.90;;;;;;4895802;29;20418;-94
2021/09/10 10:14:45;;;;;;;13.25;5.93;;;21.20;99.90;;;;;;4911601;29;20457;-96
2021/09/10 10:17:34;;;;;;;13.25;6.47;;;21.20;99.90;;;;;;4897797;29;20458;-96
2021/09/10 10:20:49;;;;;;;13.88;6.38;;;21.10;99.90;;;;;;4896538;29;20469;-96
2021/09/10 10:23:56;;;;;;;12.50;6.22;;;21.10;99.50;;;;;;4910260;29;20442;-95
2021/09/10 10:26:38;;;;;;;11.85;6.70;;;21.10;99.90;;;;;;4909589;29;20442;-94
2021/09/10 10:29:20;;;;;;;12.13;6.65;;;21.20;99.90;;;;;;4892730;29;20506;-96
2021/09/10 10:32:07;;;;;;;13.65;6.45;;;21.30;99.90;;;;;;4888676;29;20425;-95
2021/09/10 10:35:17;;;;;;;13.40;6.30;;;21.40;99.90;;;;;;4885603;29;20437;-95
2021/09/10 10:37:50;;;;;;;11.20;6.60;;;21.50;99.90;;;;;;4873666;29;20435;-92
2021/09/10 10:40:42;;;;;;;14.85;6.88;;;21.50;99.90;;;;;;4885340;29;20437;-94
2021/09/10 10:43:20;;;;;;;13.00;6.20;;;21.60;99.90;;;;;;4885197;29;20494;-92
2021/09/10 10:45:48;;;;;;;12.48;6.70;;;21.70;99.20;;;;;;4869781;29;20794;-95
2021/09/10 10:48:33;;;;;;;15.57;7.20;;;21.90;99.90;;;;;;4868375;29;20436;-93
2021/09/10 10:51:24;;;;;;;14.75;7.10;;;22.00;99.60;;;;;;4865830;29;20483;-92
2021/09/10 10:53:54;;;;;;;12.02;6.82;;;22.10;99.50;;;;;;4880207;29;20432;-93
2021/09/10 10:56:24;;;;;;;16.43;6.80;;;22.10;98.70;;;;;;4864958;29;20440;-92
2021/09/10 10:59:13;;;;;;;13.45;6.97;;;22.20;99.20;;;;;;4881281;29;20511;-96
2021/09/10 11:02:15;;;;;;;14.90;7.67;;;22.30;99.40;;;;;;4864157;29;20508;-96
2021/09/10 11:04:47;;;;;;;16.27;7.57;;;22.40;99.90;;;;;;4865153;29;20440;-93
2021/09/10 11:07:24;;;;;;;13.57;7.60;;;22.20;99.40;;;;;;4866888;29;20445;-96
2021/09/10 11:10:13;;;;;;;15.07;6.93;;;22.30;99.70;;;;;;4869900;29;20450;-96
2021/09/10 11:12:43;;;;;;;13.57;7.25;;;22.60;99.80;;;;;;4885168;29;20522;-96
2021/09/10 11:15:32;;;;;;;11.83;7.27;;;22.70;98.20;;;;;;4888317;29;20440;-96
2021/09/10 11:18:13;;;;;;;14.77;7.40;;;23.00;99.70;;;;;;4871792;29;20436;-96
2021/09/10 11:20:54;;;;;;;12.00;7.10;;;23.40;98.80;;;;;;4870933;29;20432;-96
2021/09/10 11:23:34;;;;;;;16.23;7.63;;;23.50;96.50;;;;;;4852901;29;20439;-96
2021/09/10 11:26:07;;;;;;;13.15;7.10;;;23.20;97.30;;;;;;4868976;29;20433;-96
2021/09/10 11:28:37;;;;;;;17.15;7.50;;;23.20;98.80;;;;;;4865747;29;20436;-96
2021/09/10 11:31:08;;;;;;;15.55;7.13;;;23.30;98.60;;;;;;4870555;29;20527;-96
2021/09/10 11:33:51;;;;;;;15.48;7.05;;;23.40;96.50;;;;;;4923514;23;20434;-96
2021/09/10 11:36:27;;;;;;;14.65;7.45;;;23.40;99.90;;;;;;4962459;28;20422;-95
2021/09/10 11:39:08;;;;;;;14.35;7.00;;;23.50;96.30;;;;;;4960190;29;20524;-96
2021/09/10 11:41:36;;;;;;;13.50;7.18;;;23.70;97.10;;;;;;4940442;29;20508;-96
2021/09/10 11:44:12;;;;;;;10.75;6.82;;;23.70;96.60;;;;;;4940891;29;21047;-96
2021/09/10 11:46:40;;;;;;;14.00;7.40;;;23.80;95.60;;;;;;4941982;29;20429;-95
2021/09/10 11:52:08;;;;;;;12.82;7.38;;;24.00;96.00;;;;;;5022708;23;20443;-96
2021/09/10 11:54:35;;;;;;;14.17;7.10;;;24.10;96.20;;;;;;4923333;29;20939;-94
2021/09/10 11:57:18;;;;;;;14.57;7.28;;;24.20;93.90;;;;;;4922860;29;20431;-95
2021/09/10 12:02:20;;;;;;;14.68;7.53;;;24.40;96.50;;;;;;5303676;23;20904;-94
2021/09/10 12:04:55;;;;;;;14.57;7.50;;;24.50;94.60;;;;;;4943124;29;20438;-95
2021/09/10 12:07:32;;;;;;;14.07;7.77;;;24.70;94.30;;;;;;4959796;29;20440;-95
2021/09/10 12:09:59;;;;;;;19.70;7.50;;;25.00;93.50;;;;;;4940631;29;20433;-96
2021/09/10 12:12:28;;;;;;;12.40;7.00;;;25.40;93.30;;;;;;4942124;29;20493;-96
2021/09/10 12:14:57;;;;;;;12.63;6.80;;;25.80;93.10;;;;;;4942866;29;20804;-96
2021/09/10 12:17:24;;;;;;;13.27;7.60;;;26.10;93.30;;;;;;4943087;29;20433;-95
2021/09/10 12:20:15;;;;;;;12.32;7.18;;;26.10;92.50;;;;;;4943625;29;20495;-96
2021/09/10 12:22:46;;;;;;;13.03;7.07;;;26.10;91.80;;;;;;4943343;29;20440;-96
2021/09/10 12:25:19;;;;;;;12.75;7.32;;;26.40;91.90;;;;;;4942529;29;20465;-94
2021/09/10 12:28:03;;;;;;;12.65;6.60;;;26.70;91.60;;;;;;4943182;29;20436;-96
2021/09/10 12:30:33;;;;;;;15.82;6.22;;;26.80;90.20;;;;;;4936766;29;20799;-96
2021/09/10 12:33:01;;;;;;;11.88;5.75;;;27.10;89.30;;;;;;4925690;29;20427;-92
2021/09/10 12:35:29;;;;;;;11.23;6.10;;;27.60;90.80;;;;;;4925818;29;20427;-92
2021/09/10 12:38:16;;;;;;;12.52;7.00;;;28.20;85.00;;;;;;4928622;29;20939;-94
2021/09/10 12:41:15;;;;;;;14.25;7.47;;;28.40;82.30;;;;;;4902678;29;20514;-94
2021/09/10 12:47:28;;;;;;;13.50;6.90;;;28.40;83.70;;;;;;4931924;29;20445;-94
2021/09/10 12:49:55;;;;;;;13.15;6.35;;;28.70;83.50;;;;;;4914870;29;20448;-96
2021/09/10 12:52:29;;;;;;;10.70;7.05;;;28.90;80.50;;;;;;4915764;29;20731;-96
2021/09/10 12:55:03;;;;;;;13.23;7.47;;;29.00;81.10;;;;;;4910673;29;20441;-95
2021/09/10 12:57:41;;;;;;;14.75;6.75;;;29.00;82.10;;;;;;4909099;29;20461;-96
2021/09/10 13:00:13;;;;;;;15.73;6.28;;;29.40;81.10;;;;;;4907688;29;20809;-93
2021/09/10 13:02:41;;;;;;;9.82;6.05;;;29.30;78.20;;;;;;4908293;29;20429;-95
2021/09/10 13:05:09;;;;;;;11.57;5.78;;;29.20;75.00;;;;;;4909030;29;20572;-94
2021/09/10 13:07:43;;;;;;;11.82;6.57;;;29.00;75.40;;;;;;4907265;29;20421;-95
2021/09/10 13:14:19;;;;;;;11.40;5.72;;;29.50;76.60;;;;;;4848798;29;20436;-96
2021/09/10 13:18:17;;;;;;;;;;;;;;;;;;;;;
2021/09/10 13:47:33;;;;;;;7.28;3.50;;;30.00;62.00;;;;;;4801409;29;20573;-96
2021/09/10 13:51:08;;;;;;;11.48;3.80;;;30.50;65.30;;;;;;4840023;29;20511;-96
2021/09/10 16:50:02;;;;;;;5.18;3.45;;;23.90;71.50;;;;;;4926057;29;20472;-95
2021/09/10 16:53:47;;;;;;;7.83;3.90;;;23.50;73.10;;;;;;4899265;29;20429;-96